Rocky Grove, Pennsylvania
Current Conditions -  °F | °C
As of 8:35 PM on Monday 20 Oct 2014 (Local Time) from KFKL Reporting Station
Overcast Overcast  
Wind Chill:   Ceiling: 2700
Heat Index:   Visibility: 10mi
Dew Point:   Wind: 12mph
Humidity: 82%   Direction: 180°S
Pressure: 29.88"   Gusts: NA
Location:  41.4663°N, 79.8305°W
Report Text: KFKL 210035Z 18010KT 10SM BKN027 OVC037 09/06 A2988 RMK AO1 P0002
Loading
Personal Weather Stations






























Interactive Weather Map
Tropical Storm Tracking
New forecast layout! Learn more

10-Day Weather Forecast

Advertisements
Track Severe Weather on mobile